IkaScore Players IkaScore Alliances






Support IkaScore

Please donate to
me@ikascore.com

using Skrill
Latvia Epsilon
Ikariam players: 50
AverageTotal
Kopējais punktu skaits: 23745961 1187298031
Celtnieki: 19670755 983537771
Celtniecības līmeņi: 2919 4398195
Zinātnieki: 831012 1252334474
Pētniecības līmenis: 288 433808
Ģenerāļi: 11418 17206202
Zelts: 35951493 1797574626
Uzbrukuma punkti: 5800 8740683
Aizsardzības punkti: 7437 11207552
Tirdzniecības statistika: 3672 5533398
Resursi: 14783292 739164599
ziedot: 417102 628572113
Score vulnerability: 155399 234186777
Gold vulnerability: 7463 11247421
Population: 17564 26469229
Donations to score: 343158 517139551

Digg! Delicious! IkaScore homepage
Alliances - Kopējais punktu skaits
  per page  
Rank Alliance Score Type Average Score Updated
1 LAT Kopējais punktu skaits 10254508 1045959796 26/03 10:40
2 ZXN Kopējais punktu skaits 9593934 901829834 26/03 10:40
3 EŽI Kopējais punktu skaits 48650335 632454352 26/03 10:40
4 NEZIN Kopējais punktu skaits 9027675 550688200 26/03 10:40
5 P-Z Kopējais punktu skaits 9326281 447661490 26/03 10:40
6 KidLV Kopējais punktu skaits 11032219 408192098 26/03 10:40
7 K15R Kopējais punktu skaits 19578399 195783994 26/03 10:40
8 DESA Kopējais punktu skaits 7121056 178026410 26/03 10:40
9 SOG Kopējais punktu skaits 10375285 176379851 26/03 10:40
10 BNK Kopējais punktu skaits 1728168 160719595 26/03 10:40
11 LVS- Kopējais punktu skaits 12861182 128611824 26/03 10:40
12 TRVIP Kopējais punktu skaits 5662657 113253136 26/03 10:40
13 PO- Kopējais punktu skaits 7996397 103953155 26/03 10:40
14 SPARS Kopējais punktu skaits 11667608 93340861 26/03 10:40
15 -FX- Kopējais punktu skaits 9225525 92255253 26/03 10:40
16 -AHA- Kopējais punktu skaits 4767888 90589868 26/03 10:40
17 RedS Kopējais punktu skaits 13469830 67349148 26/03 10:40
18 new Kopējais punktu skaits 5077039 55847429 26/03 10:40
19 KuP Kopējais punktu skaits 4184689 54400960 26/03 10:40
20 _LK_ Kopējais punktu skaits 5911382 47291052 26/03 10:40
21 L V K Kopējais punktu skaits 3891675 38916745 26/03 10:40
22 Z P Kopējais punktu skaits 18472326 36944652 26/03 10:40
23 LVO Kopējais punktu skaits 7355602 36778008 26/03 10:40
24 Kat Kopējais punktu skaits 16154579 32309158 26/03 10:40
25 B_S Kopējais punktu skaits 4383667 30685667 26/03 10:40
26 KF P Kopējais punktu skaits 30676851 30676851 26/03 10:40
27 123e Kopējais punktu skaits 22217009 22217009 26/03 10:40
28 TAG Kopējais punktu skaits 623574 20577927 26/03 10:40
29 D-H Kopējais punktu skaits 17608894 17608894 26/03 10:40
30 Andre Kopējais punktu skaits 17258319 17258319 26/03 10:40
31 FIRE Kopējais punktu skaits 5464563 16393688 26/03 10:40
32 BrivL Kopējais punktu skaits 1956914 15655312 26/03 10:40
33 NRWL Kopējais punktu skaits 2587259 15523552 26/03 10:40
34 LVL Kopējais punktu skaits 2935250 14676252 26/03 10:40
35 -OO- Kopējais punktu skaits 7276332 14552663 26/03 10:40
36 NEZLN Kopējais punktu skaits 1428807 12859266 26/03 10:40
37 LLS Kopējais punktu skaits 1312087 11808785 26/03 10:40
38 S-M Kopējais punktu skaits 679600 10873601 26/03 10:40
39 B-I-A Kopējais punktu skaits 1978926 9894628 26/03 10:40
40 -KC- Kopējais punktu skaits 9805729 9805729 26/03 10:40
41 -CP- Kopējais punktu skaits 3194726 9584179 26/03 10:40
42 V-V Kopējais punktu skaits 9303084 9303084 26/03 10:40
43 Ku-kū Kopējais punktu skaits 9238758 9238758 26/03 10:40
44 AGs Kopējais punktu skaits 4406857 8813713 26/03 10:40
45 -re- Kopējais punktu skaits 8807744 8807744 26/03 10:40
46 ENDE Kopējais punktu skaits 127990 7167417 26/03 10:40
47 B_N Kopējais punktu skaits 720480 5763837 26/03 10:40
48 -NV- Kopējais punktu skaits 5571250 5571250 26/03 10:40
49 Bot Kopējais punktu skaits 645129 5161029 26/03 10:40
50 ILG Kopējais punktu skaits 5067362 5067362 26/03 10:40
51 P-P Kopējais punktu skaits 278260 5008672 26/03 10:40
52 legia Kopējais punktu skaits 5004740 5004740 26/03 10:40
53 oWo Kopējais punktu skaits 2431915 4863829 26/03 10:40
54 BEK Kopējais punktu skaits 3528072 3528072 26/03 10:40
55 DRAG Kopējais punktu skaits 1154658 3463973 26/03 10:40
56 -PM- Kopējais punktu skaits 1681028 3362055 26/03 10:40
57 ZAZ Kopējais punktu skaits 2629681 2629681 26/03 10:40
58 Saw Kopējais punktu skaits 2561751 2561751 26/03 10:40
59 TR-V Kopējais punktu skaits 2374100 2374100 26/03 10:40
60 321 Kopējais punktu skaits 2272932 2272932 26/03 10:40
61 ROKO Kopējais punktu skaits 2139989 2139989 26/03 10:40
62 exKUP Kopējais punktu skaits 2073103 2073103 26/03 10:40
63 KKK Kopējais punktu skaits 191382 1339673 26/03 10:40
64 LVF Kopējais punktu skaits 1299531 1299531 26/03 10:40
65 AOD Kopējais punktu skaits 317878 1271510 26/03 10:40
66 CIR Kopējais punktu skaits 1038529 1038529 26/03 10:40
67 Vilki Kopējais punktu skaits 156318 937907 26/03 10:40
68 TRp Kopējais punktu skaits 101402 912618 26/03 10:40
69 KVL Kopējais punktu skaits 790674 790674 26/03 10:40
70 PiR Kopējais punktu skaits 753191 753191 26/03 10:40
71 ODA Kopējais punktu skaits 695516 695516 26/03 10:40
72 EGY Kopējais punktu skaits 367907 367907 26/03 10:40
73 D-M Kopējais punktu skaits 191087 191087 26/03 10:40
74 Troja Kopējais punktu skaits 79355 158710 26/03 10:40
75 uwu Kopējais punktu skaits 117222 117222 26/03 10:40
76 2-M Kopējais punktu skaits 22395 89578 26/03 10:40
77 SWS Kopējais punktu skaits 70707 70707 26/03 10:40
78 G-Man Kopējais punktu skaits 747 1493 26/03 10:40
  per page  

Copyright © 2010 IkaScore.com All Rights Reserved | Disclaimer